Time;durP1;ratioP1;P1;durP2;ratioP2;P2;SDS_P1;SDS_P2;PMS_P1;PMS_P2;Temp;Humidity;BMP_temperature;BMP_pressure;BME280_temperature;BME280_humidity;BME280_pressure;Samples;Min_cycle;Max_cycle;Signal;HPM_P1;HPM_P2
2022/04/21 00:00:36;;;;;;;11.95;4.20;;;;;;;;;;4933016;29;20138;-87
2022/04/21 00:03:04;;;;;;;7.50;3.42;;;;;;;;;;4936586;29;20103;-87
2022/04/21 00:05:31;;;;;;;7.43;3.60;;;;;;;;;;4936834;29;20129;-87
2022/04/21 00:07:58;;;;;;;8.88;3.95;;;;;;;;;;4940117;29;20082;-88
2022/04/21 00:10:27;;;;;;;6.30;3.72;;;;;;;;;;4938296;29;20331;-87
2022/04/21 00:12:57;;;;;;;7.38;3.88;;;;;;;;;;4936934;29;20079;-88
2022/04/21 00:15:25;;;;;;;7.50;4.28;;;;;;;;;;4937645;28;20059;-87
2022/04/21 00:17:52;;;;;;;9.43;4.40;;;;;;;;;;4936180;29;20056;-87
2022/04/21 00:20:20;;;;;;;12.95;4.60;;;;;;;;;;4936388;29;20129;-87
2022/04/21 00:25:33;;;;;;;10.80;4.55;;;;;;;;;;4951181;29;20074;-87
2022/04/21 00:28:00;;;;;;;10.50;4.70;;;;;;;;;;4953827;28;20715;-88
2022/04/21 00:30:28;;;;;;;10.15;4.80;;;;;;;;;;4937350;29;20051;-87
2022/04/21 00:32:56;;;;;;;7.10;4.57;;;;;;;;;;4936600;29;20425;-88
2022/04/21 00:35:25;;;;;;;9.50;4.57;;;;;;;;;;4936586;29;20053;-87
2022/04/21 00:37:53;;;;;;;13.43;5.18;;;;;;;;;;4939771;29;20062;-88
2022/04/21 00:40:22;;;;;;;11.82;4.78;;;;;;;;;;4953432;28;20117;-87
2022/04/21 00:42:49;;;;;;;11.00;5.15;;;;;;;;;;4936707;29;20076;-88
2022/04/21 00:45:16;;;;;;;8.98;4.90;;;;;;;;;;4936249;29;20548;-88
2022/04/21 00:47:45;;;;;;;10.10;5.18;;;;;;;;;;4934585;29;20904;-88
2022/04/21 00:50:19;;;;;;;8.80;4.70;;;;;;;;;;4927807;29;20051;-88
2022/04/21 00:52:47;;;;;;;8.75;4.75;;;;;;;;;;4933956;29;20082;-88
2022/04/21 00:55:14;;;;;;;8.65;4.93;;;;;;;;;;4946687;29;20051;-88
2022/04/21 00:57:42;;;;;;;9.70;4.68;;;;;;;;;;4936775;29;20047;-88
2022/04/21 01:00:11;;;;;;;9.23;4.53;;;;;;;;;;4939943;29;20055;-87
2022/04/21 01:02:46;;;;;;;10.75;4.53;;;;;;;;;;4936677;29;20799;-88
2022/04/21 01:05:14;;;;;;;14.68;5.40;;;;;;;;;;4935086;29;20611;-88
2022/04/21 01:07:41;;;;;;;8.45;4.95;;;;;;;;;;4932010;29;20059;-87
2022/04/21 01:10:09;;;;;;;14.30;5.10;;;;;;;;;;4923911;29;20052;-87
2022/04/21 01:12:37;;;;;;;10.93;4.68;;;;;;;;;;4932721;29;20105;-87
2022/04/21 01:15:05;;;;;;;10.88;4.57;;;;;;;;;;4927712;29;20055;-88
2022/04/21 01:17:36;;;;;;;19.25;5.13;;;;;;;;;;4930822;29;20056;-88
2022/04/21 01:20:04;;;;;;;9.38;4.70;;;;;;;;;;4937705;29;20059;-88
2022/04/21 01:22:32;;;;;;;12.88;5.40;;;;;;;;;;4935688;29;20098;-88
2022/04/21 01:24:59;;;;;;;16.02;5.40;;;;;;;;;;4937413;29;20067;-88
2022/04/21 01:27:28;;;;;;;12.20;5.13;;;;;;;;;;4938778;29;20047;-88
2022/04/21 01:29:55;;;;;;;11.13;5.40;;;;;;;;;;4937355;29;20086;-88
2022/04/21 01:32:23;;;;;;;12.30;4.90;;;;;;;;;;4936872;29;20105;-88
2022/04/21 01:34:50;;;;;;;9.25;5.13;;;;;;;;;;4929633;29;20138;-88
2022/04/21 01:42:49;;;;;;;12.13;4.75;;;;;;;;;;4953243;29;20055;-87
2022/04/21 01:45:16;;;;;;;11.85;5.38;;;;;;;;;;4943635;29;20051;-87
2022/04/21 01:47:44;;;;;;;16.80;5.03;;;;;;;;;;4933407;29;20082;-87
2022/04/21 01:50:11;;;;;;;14.85;5.35;;;;;;;;;;4938910;29;20047;-88
2022/04/21 01:52:38;;;;;;;14.45;5.18;;;;;;;;;;4956958;28;20051;-88
2022/04/21 01:55:06;;;;;;;14.98;5.45;;;;;;;;;;4939672;29;20055;-88
2022/04/21 01:57:33;;;;;;;10.05;5.20;;;;;;;;;;4948725;29;20075;-87
2022/04/21 02:00:01;;;;;;;8.52;4.93;;;;;;;;;;4956905;28;20055;-88
2022/04/21 02:02:29;;;;;;;11.02;5.40;;;;;;;;;;4955393;28;20099;-88
2022/04/21 02:04:57;;;;;;;10.88;5.28;;;;;;;;;;4932199;29;20058;-88
2022/04/21 02:07:25;;;;;;;16.92;6.10;;;;;;;;;;4954152;28;20408;-88
2022/04/21 02:09:52;;;;;;;7.70;5.00;;;;;;;;;;4936079;29;20130;-88
2022/04/21 02:12:21;;;;;;;11.70;4.72;;;;;;;;;;4935348;29;20106;-87
2022/04/21 02:14:48;;;;;;;10.20;5.63;;;;;;;;;;4935191;29;20107;-88
2022/04/21 02:17:16;;;;;;;10.23;4.90;;;;;;;;;;4936129;29;20079;-87
2022/04/21 02:19:43;;;;;;;8.38;5.25;;;;;;;;;;4936869;29;20059;-87
2022/04/21 02:22:10;;;;;;;10.55;5.25;;;;;;;;;;4932578;29;20063;-87
2022/04/21 02:24:37;;;;;;;11.43;5.32;;;;;;;;;;4933900;29;20075;-87
2022/04/21 02:27:05;;;;;;;10.10;5.28;;;;;;;;;;4955929;28;20083;-87
2022/04/21 02:29:32;;;;;;;11.88;6.00;;;;;;;;;;4939219;29;20075;-87
2022/04/21 02:32:01;;;;;;;12.90;5.32;;;;;;;;;;4940071;29;20719;-87
2022/04/21 02:34:29;;;;;;;15.07;5.90;;;;;;;;;;4936099;29;20059;-87
2022/04/21 02:36:57;;;;;;;12.82;5.47;;;;;;;;;;4948503;29;20138;-86
2022/04/21 02:39:24;;;;;;;11.40;6.18;;;;;;;;;;4940656;29;20065;-86
2022/04/21 02:41:52;;;;;;;14.77;5.82;;;;;;;;;;4935359;29;20134;-85
2022/04/21 02:44:20;;;;;;;12.23;5.70;;;;;;;;;;4943098;29;20474;-87
2022/04/21 02:46:47;;;;;;;10.77;5.65;;;;;;;;;;4935588;29;20523;-86
2022/04/21 02:49:14;;;;;;;13.80;5.57;;;;;;;;;;4931168;29;20055;-86
2022/04/21 02:51:42;;;;;;;11.10;5.63;;;;;;;;;;4936137;29;20103;-86
2022/04/21 02:59:42;;;;;;;12.50;6.05;;;;;;;;;;4955313;29;20090;-86
2022/04/21 03:02:09;;;;;;;12.73;5.55;;;;;;;;;;4938672;29;20047;-86
2022/04/21 03:04:36;;;;;;;12.80;5.75;;;;;;;;;;4956004;29;20497;-85
2022/04/21 03:07:04;;;;;;;10.63;5.50;;;;;;;;;;4938128;29;20063;-85
2022/04/21 03:09:32;;;;;;;16.02;5.50;;;;;;;;;;4933404;29;20051;-86
2022/04/21 03:12:03;;;;;;;16.70;6.20;;;;;;;;;;4928995;29;20047;-85
2022/04/21 03:14:31;;;;;;;13.88;6.15;;;;;;;;;;4946870;29;20074;-85
2022/04/21 03:17:01;;;;;;;8.73;5.13;;;;;;;;;;4936252;29;20095;-86
2022/04/21 03:19:31;;;;;;;18.33;6.28;;;;;;;;;;4940672;29;20478;-84
2022/04/21 03:24:45;;;;;;;10.05;4.75;;;;;;;;;;4954961;29;20126;-86
2022/04/21 03:27:12;;;;;;;12.13;6.10;;;;;;;;;;4938174;29;20113;-86
2022/04/21 03:29:40;;;;;;;12.88;5.57;;;;;;;;;;4938143;29;20142;-87
2022/04/21 03:32:12;;;;;;;16.95;5.13;;;;;;;;;;4927720;29;20059;-87
2022/04/21 03:34:42;;;;;;;11.18;4.93;;;;;;;;;;4937937;29;20091;-86
2022/04/21 03:37:11;;;;;;;11.75;4.78;;;;;;;;;;4960555;28;20114;-86
2022/04/21 03:39:38;;;;;;;16.30;5.03;;;;;;;;;;4937867;29;20412;-86
2022/04/21 03:42:06;;;;;;;11.35;4.70;;;;;;;;;;4938515;29;20098;-87
2022/04/21 03:44:34;;;;;;;11.93;5.43;;;;;;;;;;4939241;29;20110;-87
2022/04/21 03:47:01;;;;;;;11.45;4.90;;;;;;;;;;4935087;29;20143;-87
2022/04/21 03:49:29;;;;;;;11.05;4.93;;;;;;;;;;4951505;28;20064;-86
2022/04/21 03:51:57;;;;;;;13.05;4.80;;;;;;;;;;4938677;29;20316;-87
2022/04/21 03:54:26;;;;;;;9.48;4.20;;;;;;;;;;4937909;29;20443;-87
2022/04/21 03:56:54;;;;;;;11.18;4.80;;;;;;;;;;4939243;29;20819;-86
2022/04/21 03:59:25;;;;;;;15.18;5.40;;;;;;;;;;4934329;29;20051;-86
2022/04/21 04:01:52;;;;;;;8.35;4.82;;;;;;;;;;4932657;29;20110;-86
2022/04/21 04:04:20;;;;;;;15.55;5.30;;;;;;;;;;4949970;28;20126;-86
2022/04/21 04:12:19;;;;;;;15.02;4.97;;;;;;;;;;4950028;28;20051;-86
2022/04/21 04:14:46;;;;;;;10.48;5.28;;;;;;;;;;4948055;29;20067;-86
2022/04/21 04:17:14;;;;;;;10.63;4.82;;;;;;;;;;4939303;29;20055;-86
2022/04/21 04:19:42;;;;;;;27.13;6.18;;;;;;;;;;4935010;29;20126;-85
2022/04/21 04:22:09;;;;;;;20.38;5.18;;;;;;;;;;4931170;29;20079;-86
2022/04/21 04:24:36;;;;;;;21.40;4.45;;;;;;;;;;4935566;29;20075;-87
2022/04/21 04:27:03;;;;;;;12.43;4.88;;;;;;;;;;4953442;28;20604;-86
2022/04/21 04:29:30;;;;;;;46.10;7.03;;;;;;;;;;4937552;29;20495;-86
2022/04/21 04:32:00;;;;;;;12.85;4.65;;;;;;;;;;4954167;29;20073;-86
2022/04/21 04:34:28;;;;;;;9.23;4.18;;;;;;;;;;4947473;28;20055;-85
2022/04/21 04:36:55;;;;;;;15.32;4.88;;;;;;;;;;4939962;29;20131;-87
2022/04/21 04:39:22;;;;;;;15.52;4.40;;;;;;;;;;4937245;29;20075;-87
2022/04/21 04:44:35;;;;;;;15.70;4.00;;;;;;;;;;4948674;29;20043;-86
2022/04/21 04:47:02;;;;;;;11.52;4.35;;;;;;;;;;4932967;29;20516;-86
2022/04/21 04:49:29;;;;;;;26.73;4.15;;;;;;;;;;4939115;28;20078;-87
2022/04/21 04:51:57;;;;;;;8.75;4.28;;;;;;;;;;4931934;29;20133;-85
2022/04/21 04:54:25;;;;;;;12.07;4.65;;;;;;;;;;4955767;28;20110;-86
2022/04/21 04:56:52;;;;;;;10.48;4.10;;;;;;;;;;4943422;28;20589;-86
2022/04/21 04:59:19;;;;;;;10.80;4.13;;;;;;;;;;4935656;29;20480;-87
2022/04/21 05:01:52;;;;;;;12.40;4.30;;;;;;;;;;4953347;29;20076;-88
2022/04/21 05:04:20;;;;;;;8.80;4.03;;;;;;;;;;4941008;29;20043;-89
2022/04/21 05:06:57;;;;;;;14.93;4.60;;;;;;;;;;4940280;29;20047;-90
2022/04/21 05:09:25;;;;;;;9.10;4.20;;;;;;;;;;4938508;29;20055;-89
2022/04/21 05:11:53;;;;;;;8.13;4.22;;;;;;;;;;4939281;29;20870;-88
2022/04/21 05:14:22;;;;;;;14.77;4.53;;;;;;;;;;4963177;28;20110;-89
2022/04/21 05:16:49;;;;;;;12.35;4.95;;;;;;;;;;4938947;29;20047;-88
2022/04/21 05:19:19;;;;;;;16.08;5.25;;;;;;;;;;4936339;29;20133;-87
2022/04/21 05:21:48;;;;;;;18.50;4.97;;;;;;;;;;4954509;28;20471;-87
2022/04/21 05:24:15;;;;;;;8.35;4.18;;;;;;;;;;4972194;28;20059;-88
2022/04/21 05:26:43;;;;;;;19.95;4.15;;;;;;;;;;4916827;29;20087;-88
2022/04/21 05:31:58;;;;;;;15.15;6.07;;;;;;;;;;4936443;29;20051;-88
2022/04/21 05:34:26;;;;;;;10.13;5.30;;;;;;;;;;4925628;29;20428;-91
2022/04/21 05:36:54;;;;;;;9.07;5.00;;;;;;;;;;4971504;28;20532;-91
2022/04/21 05:39:24;;;;;;;18.02;5.72;;;;;;;;;;4936587;29;20054;-89
2022/04/21 05:41:57;;;;;;;10.82;4.85;;;;;;;;;;4932860;29;20460;-89
2022/04/21 05:44:25;;;;;;;7.72;4.35;;;;;;;;;;4952118;29;20109;-88
2022/04/21 05:46:52;;;;;;;9.77;4.78;;;;;;;;;;4936662;29;20055;-88
2022/04/21 05:49:20;;;;;;;9.05;5.10;;;;;;;;;;4936968;29;20133;-89
2022/04/21 05:51:48;;;;;;;11.48;4.53;;;;;;;;;;4936321;29;20118;-88
2022/04/21 05:54:16;;;;;;;12.93;6.63;;;;;;;;;;4933511;29;20073;-88
2022/04/21 05:56:43;;;;;;;11.60;4.30;;;;;;;;;;4937032;29;20075;-88
2022/04/21 05:59:10;;;;;;;14.02;5.72;;;;;;;;;;4937167;29;20051;-88
2022/04/21 06:01:38;;;;;;;11.82;4.70;;;;;;;;;;4954033;28;20467;-89
2022/04/21 06:04:05;;;;;;;7.50;3.92;;;;;;;;;;4955431;29;20580;-89
2022/04/21 06:06:32;;;;;;;9.45;3.90;;;;;;;;;;4955742;29;20134;-88
2022/04/21 06:09:00;;;;;;;12.40;4.03;;;;;;;;;;4956339;29;20051;-89
2022/04/21 06:11:27;;;;;;;19.88;4.57;;;;;;;;;;4956322;29;20492;-88
2022/04/21 06:13:54;;;;;;;18.83;4.35;;;;;;;;;;4938939;29;20133;-89
2022/04/21 06:16:22;;;;;;;17.50;4.68;;;;;;;;;;4939834;29;20071;-89
2022/04/21 06:18:50;;;;;;;9.10;3.83;;;;;;;;;;4956305;29;20051;-88
2022/04/21 06:21:17;;;;;;;7.35;3.85;;;;;;;;;;4938550;29;20051;-89
2022/04/21 06:23:45;;;;;;;14.23;4.30;;;;;;;;;;4953985;29;20078;-89
2022/04/21 06:26:14;;;;;;;13.68;4.28;;;;;;;;;;4920893;29;20144;-90
2022/04/21 06:28:42;;;;;;;10.15;4.30;;;;;;;;;;4920167;29;20060;-89
2022/04/21 06:31:09;;;;;;;15.18;3.97;;;;;;;;;;4931698;29;20461;-89
2022/04/21 06:33:36;;;;;;;12.70;3.85;;;;;;;;;;4931544;29;20048;-89
2022/04/21 06:36:06;;;;;;;12.88;3.95;;;;;;;;;;4920030;29;20107;-89
2022/04/21 06:38:33;;;;;;;9.35;3.85;;;;;;;;;;4920543;29;20070;-89
2022/04/21 06:41:01;;;;;;;10.15;3.35;;;;;;;;;;4937612;29;20098;-89
2022/04/21 06:49:01;;;;;;;9.38;3.50;;;;;;;;;;4955480;29;20544;-89
2022/04/21 06:51:28;;;;;;;19.98;3.53;;;;;;;;;;4932976;29;20408;-89
2022/04/21 06:53:55;;;;;;;16.48;4.30;;;;;;;;;;4919539;29;20135;-88
2022/04/21 06:56:23;;;;;;;9.63;3.97;;;;;;;;;;4920024;29;20083;-89
2022/04/21 06:58:55;;;;;;;7.00;3.42;;;;;;;;;;4922044;29;20059;-90
2022/04/21 07:01:23;;;;;;;12.02;3.97;;;;;;;;;;4936608;29;20118;-88
2022/04/21 07:03:50;;;;;;;12.73;4.68;;;;;;;;;;4921609;29;20115;-89
2022/04/21 07:06:17;;;;;;;9.45;3.42;;;;;;;;;;4940485;29;20062;-89
2022/04/21 07:08:45;;;;;;;6.07;3.35;;;;;;;;;;4939820;29;20102;-87
2022/04/21 07:11:12;;;;;;;9.10;4.07;;;;;;;;;;4939593;28;20043;-90
2022/04/21 07:13:39;;;;;;;16.88;4.03;;;;;;;;;;4952817;29;20059;-90
2022/04/21 07:16:06;;;;;;;27.85;4.57;;;;;;;;;;4927972;29;20058;-89
2022/04/21 07:18:34;;;;;;;13.25;3.85;;;;;;;;;;4970674;28;20062;-89
2022/04/21 07:21:03;;;;;;;8.18;3.50;;;;;;;;;;4969804;28;20086;-89
2022/04/21 07:23:31;;;;;;;11.07;4.70;;;;;;;;;;4956902;28;20047;-88
2022/04/21 07:25:58;;;;;;;9.00;3.35;;;;;;;;;;4954030;28;20139;-89
2022/04/21 07:28:25;;;;;;;8.45;3.90;;;;;;;;;;4953122;29;20063;-89
2022/04/21 07:30:52;;;;;;;13.43;4.20;;;;;;;;;;4953977;29;20055;-89
2022/04/21 07:33:20;;;;;;;9.00;3.58;;;;;;;;;;4954064;29;20139;-89
2022/04/21 07:35:48;;;;;;;9.27;3.60;;;;;;;;;;4929130;29;20713;-88
2022/04/21 07:38:15;;;;;;;14.98;4.25;;;;;;;;;;4935693;29;20058;-89
2022/04/21 07:40:43;;;;;;;19.58;4.90;;;;;;;;;;4919684;29;20414;-89
2022/04/21 07:43:12;;;;;;;17.02;4.55;;;;;;;;;;4938327;29;20504;-89
2022/04/21 07:45:44;;;;;;;11.38;3.90;;;;;;;;;;4959086;29;20102;-89
2022/04/21 07:48:12;;;;;;;8.98;3.83;;;;;;;;;;4943601;29;20075;-89
2022/04/21 07:50:39;;;;;;;6.40;3.65;;;;;;;;;;4953457;28;20083;-90
2022/04/21 07:53:22;;;;;;;9.32;3.67;;;;;;;;;;4956026;29;20138;-89
2022/04/21 07:55:53;;;;;;;8.48;3.42;;;;;;;;;;4939674;29;20275;-90
2022/04/21 07:58:25;;;;;;;12.00;3.85;;;;;;;;;;4939561;29;20448;-88
2022/04/21 08:00:53;;;;;;;9.10;4.28;;;;;;;;;;4944040;29;20440;-90
2022/04/21 08:03:20;;;;;;;18.08;4.05;;;;;;;;;;4955141;29;20067;-90
2022/04/21 08:05:47;;;;;;;13.98;4.53;;;;;;;;;;4954733;29;20055;-90
2022/04/21 08:08:14;;;;;;;10.55;4.40;;;;;;;;;;4954628;29;20414;-89
2022/04/21 08:10:42;;;;;;;10.95;3.72;;;;;;;;;;4944242;29;20102;-89
2022/04/21 08:13:09;;;;;;;12.30;4.35;;;;;;;;;;4954970;29;20047;-89
2022/04/21 08:15:36;;;;;;;8.48;3.72;;;;;;;;;;4955400;29;20110;-90
2022/04/21 08:18:05;;;;;;;12.95;4.93;;;;;;;;;;4938458;29;20054;-89
2022/04/21 08:20:33;;;;;;;14.10;4.07;;;;;;;;;;4925768;29;20481;-90
2022/04/21 08:23:00;;;;;;;19.60;4.90;;;;;;;;;;4918462;29;20508;-89
2022/04/21 08:34:22;;;;;;;11.48;3.85;;;;;;;;;;4954559;29;20051;-88
2022/04/21 08:36:53;;;;;;;9.05;3.70;;;;;;;;;;4939070;29;20323;-88
2022/04/21 08:39:20;;;;;;;12.07;3.78;;;;;;;;;;4918252;29;20090;-89
2022/04/21 08:41:52;;;;;;;17.45;4.70;;;;;;;;;;4933813;29;20547;-89
2022/04/21 08:44:19;;;;;;;17.65;3.97;;;;;;;;;;4937188;29;20051;-90
2022/04/21 08:46:50;;;;;;;18.92;4.35;;;;;;;;;;4952876;29;20055;-89
2022/04/21 08:49:21;;;;;;;10.25;3.92;;;;;;;;;;4938668;29;20452;-90
2022/04/21 08:51:49;;;;;;;12.50;4.20;;;;;;;;;;4955183;29;20122;-89
2022/04/21 08:54:17;;;;;;;15.38;4.63;;;;;;;;;;4954287;29;20063;-89
2022/04/21 08:56:44;;;;;;;7.43;3.53;;;;;;;;;;4937204;29;20103;-90
2022/04/21 08:59:11;;;;;;;16.65;3.63;;;;;;;;;;4937007;29;20043;-89
2022/04/21 09:01:39;;;;;;;9.30;3.95;;;;;;;;;;4937140;29;20082;-90
2022/04/21 09:04:06;;;;;;;15.75;4.57;;;;;;;;;;4938448;29;20122;-89
2022/04/21 09:06:37;;;;;;;6.35;3.70;;;;;;;;;;4933802;29;20055;-90
2022/04/21 09:09:16;;;;;;;7.88;3.97;;;;;;;;;;4938217;29;20449;-90
2022/04/21 09:11:44;;;;;;;12.93;3.92;;;;;;;;;;4955858;29;20073;-90
2022/04/21 09:14:15;;;;;;;13.70;4.10;;;;;;;;;;4930436;29;20075;-91
2022/04/21 09:16:42;;;;;;;11.30;3.88;;;;;;;;;;4932132;29;20058;-91
2022/04/21 09:19:09;;;;;;;11.60;4.32;;;;;;;;;;4953567;28;20133;-91
2022/04/21 09:21:37;;;;;;;13.75;4.00;;;;;;;;;;4953630;29;20055;-91
2022/04/21 09:24:40;;;;;;;10.55;4.13;;;;;;;;;;4954075;29;20721;-91
2022/04/21 09:27:07;;;;;;;18.55;4.28;;;;;;;;;;4913966;29;20063;-90
2022/04/21 09:29:38;;;;;;;22.42;4.10;;;;;;;;;;4953328;29;20110;-90
2022/04/21 09:32:05;;;;;;;12.88;4.28;;;;;;;;;;4938396;29;20513;-89
2022/04/21 09:34:35;;;;;;;11.40;3.65;;;;;;;;;;4935021;28;20060;-91
2022/04/21 09:37:05;;;;;;;13.73;4.18;;;;;;;;;;4921488;29;20099;-92
2022/04/21 09:39:38;;;;;;;9.63;3.88;;;;;;;;;;4921411;29;20055;-90
2022/04/21 09:42:06;;;;;;;19.20;4.60;;;;;;;;;;4923127;29;20051;-89
2022/04/21 09:47:20;;;;;;;32.13;5.07;;;;;;;;;;4958664;29;20051;-91
2022/04/21 09:49:48;;;;;;;11.38;4.57;;;;;;;;;;4958275;29;20059;-89
2022/04/21 09:52:26;;;;;;;16.80;4.97;;;;;;;;;;4958652;29;20094;-92
2022/04/21 09:54:53;;;;;;;16.20;4.28;;;;;;;;;;4941630;29;20036;-90
2022/04/21 09:57:39;;;;;;;12.25;4.20;;;;;;;;;;4940941;29;20071;-90
2022/04/21 10:00:07;;;;;;;8.13;3.95;;;;;;;;;;4940290;29;20485;-91
2022/04/21 10:02:35;;;;;;;9.60;4.20;;;;;;;;;;4940633;29;20051;-91
2022/04/21 10:05:03;;;;;;;9.77;4.32;;;;;;;;;;4939168;29;20102;-91
2022/04/21 10:07:30;;;;;;;10.35;4.60;;;;;;;;;;4922272;29;20095;-90
2022/04/21 10:09:58;;;;;;;15.95;5.72;;;;;;;;;;4922711;29;20126;-91
2022/04/21 10:12:25;;;;;;;30.98;6.90;;;;;;;;;;4922479;29;20075;-91
2022/04/21 10:14:52;;;;;;;13.88;5.40;;;;;;;;;;4922107;29;20087;-91
2022/04/21 10:17:19;;;;;;;13.45;5.93;;;;;;;;;;4921857;29;20122;-91
2022/04/21 10:19:51;;;;;;;11.68;4.65;;;;;;;;;;4939929;29;20048;-91
2022/04/21 10:22:25;;;;;;;27.33;6.78;;;;;;;;;;4941669;29;20051;-90
2022/04/21 10:24:54;;;;;;;13.98;5.25;;;;;;;;;;4940594;29;20058;-89
2022/04/21 10:27:35;;;;;;;25.35;7.28;;;;;;;;;;4940969;29;20085;-89
2022/04/21 10:30:03;;;;;;;13.75;4.72;;;;;;;;;;4937976;29;20102;-89
2022/04/21 10:32:46;;;;;;;20.63;5.55;;;;;;;;;;4940426;29;20051;-89
2022/04/21 10:35:20;;;;;;;14.88;6.15;;;;;;;;;;4941049;29;20098;-88
2022/04/21 10:37:47;;;;;;;12.15;5.05;;;;;;;;;;4957850;29;20044;-88
2022/04/21 10:40:21;;;;;;;12.73;5.03;;;;;;;;;;4940405;29;20444;-89
2022/04/21 10:42:55;;;;;;;15.20;5.45;;;;;;;;;;4957789;29;20061;-89
2022/04/21 10:45:25;;;;;;;13.48;5.18;;;;;;;;;;4954653;29;20056;-89
2022/04/21 10:48:13;;;;;;;37.17;6.10;;;;;;;;;;4920252;29;20481;-92
2022/04/21 10:50:41;;;;;;;14.48;4.80;;;;;;;;;;4963285;28;20500;-89
2022/04/21 10:58:55;;;;;;;14.77;4.80;;;;;;;;;;4922115;29;20044;-89
2022/04/21 11:01:31;;;;;;;16.45;5.05;;;;;;;;;;4926596;29;20043;-90
2022/04/21 11:04:13;;;;;;;13.52;4.32;;;;;;;;;;4921510;29;20412;-89
2022/04/21 11:06:51;;;;;;;18.20;4.85;;;;;;;;;;4921675;29;20165;-89
2022/04/21 11:09:37;;;;;;;11.38;5.55;;;;;;;;;;4921289;29;20158;-90
2022/04/21 11:12:25;;;;;;;;;;;;;;;;;;4924453;29;20052;-89
2022/04/21 11:14:52;;;;;;;12.70;4.65;;;;;;;;;;4921463;29;20372;-89
2022/04/21 11:17:19;;;;;;;9.88;4.05;;;;;;;;;;4922130;29;20047;-89
2022/04/21 11:19:53;;;;;;;10.57;4.35;;;;;;;;;;4921050;29;20099;-89
2022/04/21 11:22:40;;;;;;;13.77;5.43;;;;;;;;;;4921671;29;20064;-90
2022/04/21 11:25:08;;;;;;;12.30;4.65;;;;;;;;;;4921644;29;20052;-89
2022/04/21 11:27:40;;;;;;;11.18;5.03;;;;;;;;;;4921772;29;20083;-89
2022/04/21 11:30:09;;;;;;;11.45;4.15;;;;;;;;;;4922795;29;20274;-89
2022/04/21 11:32:39;;;;;;;11.93;4.43;;;;;;;;;;4940023;29;20118;-90
2022/04/21 11:35:11;;;;;;;20.00;5.43;;;;;;;;;;4957374;29;20047;-89
2022/04/21 11:37:44;;;;;;;6.88;4.43;;;;;;;;;;4940753;29;20053;-89
2022/04/21 11:40:38;;;;;;;10.80;4.28;;;;;;;;;;4940424;29;20079;-90
2022/04/21 11:43:16;;;;;;;15.13;5.55;;;;;;;;;;4938885;29;20059;-89
2022/04/21 11:46:05;;;;;;;10.18;4.60;;;;;;;;;;4934640;29;20130;-89
2022/04/21 11:48:42;;;;;;;8.68;4.13;;;;;;;;;;4921386;29;20412;-89
2022/04/21 11:51:11;;;;;;;12.68;4.28;;;;;;;;;;4921410;29;20066;-89
2022/04/21 11:53:43;;;;;;;17.67;5.22;;;;;;;;;;4922796;29;20139;-89
2022/04/21 11:56:12;;;;;;;10.15;4.53;;;;;;;;;;4922380;29;20489;-89
2022/04/21 11:58:41;;;;;;;11.93;4.47;;;;;;;;;;4939545;29;20048;-89
2022/04/21 12:06:50;;;;;;;14.25;4.63;;;;;;;;;;4957418;29;20055;-90
2022/04/21 12:09:21;;;;;;;11.95;4.88;;;;;;;;;;4941318;29;20106;-90
2022/04/21 12:11:51;;;;;;;13.90;4.55;;;;;;;;;;4924867;29;20497;-89
2022/04/21 12:14:19;;;;;;;14.57;4.40;;;;;;;;;;4935161;29;20059;-89
2022/04/21 12:16:48;;;;;;;12.88;5.32;;;;;;;;;;4939082;29;20051;-90
2022/04/21 12:19:35;;;;;;;13.77;5.13;;;;;;;;;;4940586;29;20051;-91
2022/04/21 12:22:09;;;;;;;13.88;5.35;;;;;;;;;;4957004;29;20067;-90
2022/04/21 12:24:45;;;;;;;14.93;4.63;;;;;;;;;;4940056;29;20416;-90
2022/04/21 12:27:20;;;;;;;16.30;5.07;;;;;;;;;;4939236;29;20558;-90
2022/04/21 12:29:48;;;;;;;37.72;5.57;;;;;;;;;;4939530;29;20051;-89
2022/04/21 12:32:17;;;;;;;11.20;4.60;;;;;;;;;;4939717;29;20436;-88
2022/04/21 12:34:44;;;;;;;15.57;5.90;;;;;;;;;;4939245;29;20047;-90
2022/04/21 12:37:12;;;;;;;15.07;5.05;;;;;;;;;;4956931;29;20051;-90
2022/04/21 12:39:40;;;;;;;11.95;5.00;;;;;;;;;;4955739;29;20452;-90
2022/04/21 12:42:31;;;;;;;14.93;5.20;;;;;;;;;;4956652;28;20055;-89
2022/04/21 12:44:58;;;;;;;15.90;5.20;;;;;;;;;;4940484;29;20055;-90
2022/04/21 12:47:26;;;;;;;10.07;4.28;;;;;;;;;;4939278;29;20055;-91
2022/04/21 12:50:03;;;;;;;12.50;4.55;;;;;;;;;;4939054;29;20067;-89
2022/04/21 12:52:32;;;;;;;16.13;4.97;;;;;;;;;;4938661;29;20411;-90
2022/04/21 12:55:02;;;;;;;11.32;4.15;;;;;;;;;;4938647;29;20070;-89
2022/04/21 12:57:29;;;;;;;13.70;4.40;;;;;;;;;;4938623;29;20054;-91
2022/04/21 12:59:57;;;;;;;12.80;4.18;;;;;;;;;;4953446;28;20762;-89
2022/04/21 13:02:24;;;;;;;10.13;4.28;;;;;;;;;;4921069;29;20056;-90
2022/04/21 13:04:52;;;;;;;9.15;4.13;;;;;;;;;;4919354;29;20083;-91
2022/04/21 13:07:19;;;;;;;9.77;4.18;;;;;;;;;;4936862;29;20051;-90
2022/04/21 13:09:47;;;;;;;8.13;3.75;;;;;;;;;;4924115;29;20061;-91
2022/04/21 13:12:15;;;;;;;11.30;4.07;;;;;;;;;;4938245;29;20071;-90
2022/04/21 13:14:42;;;;;;;13.15;4.35;;;;;;;;;;4938894;29;20082;-90
2022/04/21 13:17:09;;;;;;;11.52;4.50;;;;;;;;;;4921904;29;20126;-89
2022/04/21 13:19:36;;;;;;;16.85;4.90;;;;;;;;;;4933732;29;20059;-89
2022/04/21 13:22:04;;;;;;;13.93;4.75;;;;;;;;;;4938364;29;20111;-89
2022/04/21 13:24:34;;;;;;;12.50;4.10;;;;;;;;;;4948299;29;20055;-90
2022/04/21 13:27:02;;;;;;;11.57;3.67;;;;;;;;;;4954977;29;20139;-89
2022/04/21 13:29:30;;;;;;;9.60;4.15;;;;;;;;;;4938154;29;20051;-89
2022/04/21 13:34:44;;;;;;;8.73;4.35;;;;;;;;;;4936404;29;20485;-90
2022/04/21 13:37:11;;;;;;;9.68;4.05;;;;;;;;;;4935842;29;20083;-89
2022/04/21 13:39:40;;;;;;;9.38;3.92;;;;;;;;;;4918912;29;20485;-90
2022/04/21 13:42:08;;;;;;;9.27;4.20;;;;;;;;;;4938809;29;20096;-90
2022/04/21 13:44:36;;;;;;;13.43;4.82;;;;;;;;;;4931646;29;20189;-89
2022/04/21 13:47:23;;;;;;;9.05;4.32;;;;;;;;;;4925588;29;20457;-90
2022/04/21 13:49:50;;;;;;;14.20;4.50;;;;;;;;;;4943682;29;20074;-90
2022/04/21 13:52:18;;;;;;;13.55;3.90;;;;;;;;;;4921880;29;20056;-89
2022/04/21 13:54:46;;;;;;;26.58;4.72;;;;;;;;;;4935536;29;20047;-89
2022/04/21 13:57:14;;;;;;;10.82;4.32;;;;;;;;;;4955508;29;20472;-90
2022/04/21 13:59:41;;;;;;;17.15;4.82;;;;;;;;;;4938893;29;20048;-90
2022/04/21 14:02:08;;;;;;;12.88;4.40;;;;;;;;;;4938341;29;20114;-90
2022/04/21 14:04:36;;;;;;;13.23;4.22;;;;;;;;;;4938187;29;20059;-89
2022/04/21 14:07:04;;;;;;;14.68;4.30;;;;;;;;;;4938479;29;20051;-89
2022/04/21 14:09:31;;;;;;;10.82;4.38;;;;;;;;;;4955853;28;20047;-89
2022/04/21 14:11:58;;;;;;;14.00;4.53;;;;;;;;;;4938296;29;20138;-89
2022/04/21 14:14:28;;;;;;;11.95;4.47;;;;;;;;;;4938002;29;20055;-90
2022/04/21 14:16:55;;;;;;;8.30;4.00;;;;;;;;;;4938222;29;20043;-89
2022/04/21 14:19:23;;;;;;;11.95;4.93;;;;;;;;;;4938566;29;20081;-90
2022/04/21 14:21:50;;;;;;;9.13;3.95;;;;;;;;;;4939553;29;20102;-91
2022/04/21 14:24:18;;;;;;;12.00;4.80;;;;;;;;;;4958765;29;20138;-90
2022/04/21 14:26:45;;;;;;;18.98;5.05;;;;;;;;;;4942511;29;20326;-90
2022/04/21 14:29:13;;;;;;;9.85;4.32;;;;;;;;;;4942278;29;20440;-91
2022/04/21 14:31:40;;;;;;;12.55;4.85;;;;;;;;;;4942020;29;20448;-91
2022/04/21 14:34:08;;;;;;;12.68;4.97;;;;;;;;;;4941299;29;20129;-89
2022/04/21 14:36:35;;;;;;;9.85;4.00;;;;;;;;;;4953019;29;20573;-90
2022/04/21 14:44:36;;;;;;;7.53;3.58;;;;;;;;;;4939666;29;20055;-90
2022/04/21 14:47:07;;;;;;;16.35;3.60;;;;;;;;;;4944502;29;20146;-90
2022/04/21 14:49:51;;;;;;;7.32;3.53;;;;;;;;;;4939678;29;20134;-89
2022/04/21 14:52:19;;;;;;;8.70;3.53;;;;;;;;;;4941572;29;20551;-89
2022/04/21 14:54:47;;;;;;;11.70;3.67;;;;;;;;;;4941413;29;20043;-89
2022/04/21 14:57:15;;;;;;;13.43;3.67;;;;;;;;;;4942995;29;20555;-90
2022/04/21 14:59:44;;;;;;;12.15;3.10;;;;;;;;;;4942819;29;20106;-91
2022/04/21 15:02:13;;;;;;;8.38;3.28;;;;;;;;;;4944877;29;20383;-91
2022/04/21 15:04:41;;;;;;;7.72;3.25;;;;;;;;;;4941703;29;20082;-91
2022/04/21 15:07:09;;;;;;;11.70;3.65;;;;;;;;;;4923324;29;20055;-91
2022/04/21 15:09:36;;;;;;;6.30;3.22;;;;;;;;;;4922966;29;20052;-90
2022/04/21 15:12:04;;;;;;;23.63;3.47;;;;;;;;;;4922056;29;20055;-90
2022/04/21 15:14:32;;;;;;;7.00;3.42;;;;;;;;;;4921534;29;20052;-90
2022/04/21 15:17:00;;;;;;;12.43;3.63;;;;;;;;;;4923046;29;20408;-92
2022/04/21 15:19:33;;;;;;;8.15;3.35;;;;;;;;;;4925443;29;20051;-91
2022/04/21 15:22:18;;;;;;;7.82;3.33;;;;;;;;;;4914297;29;20107;-90
2022/04/21 15:24:52;;;;;;;10.43;3.25;;;;;;;;;;4928185;29;20102;-90
2022/04/21 15:27:20;;;;;;;8.88;3.45;;;;;;;;;;4942158;29;20055;-90
2022/04/21 15:29:47;;;;;;;6.35;3.60;;;;;;;;;;4941167;29;20079;-90
2022/04/21 15:32:14;;;;;;;8.98;3.22;;;;;;;;;;4940668;28;20086;-90
2022/04/21 15:34:42;;;;;;;8.15;3.38;;;;;;;;;;4939013;29;20051;-90
2022/04/21 15:37:10;;;;;;;16.65;3.25;;;;;;;;;;4955601;29;20070;-89
2022/04/21 15:39:37;;;;;;;11.13;3.70;;;;;;;;;;4947227;29;20118;-90
2022/04/21 15:42:05;;;;;;;10.27;3.75;;;;;;;;;;4940260;29;20055;-90
2022/04/21 15:44:34;;;;;;;10.18;3.22;;;;;;;;;;4940584;29;20055;-89
2022/04/21 15:47:03;;;;;;;13.00;3.75;;;;;;;;;;4941366;29;20047;-89
2022/04/21 15:49:30;;;;;;;9.63;3.63;;;;;;;;;;4957843;29;20055;-90